sensor_id;sensor_type;location;lat;lon;timestamp;P1;durP1;ratioP1;P2;durP2;ratioP2
1601;SDS011;794;48.592;9.634;2022-08-30T00:00:37;8.20;;;7.50;;
1601;SDS011;794;48.592;9.634;2022-08-30T00:03:22;10.13;;;9.23;;
1601;SDS011;794;48.592;9.634;2022-08-30T00:05:49;11.10;;;9.10;;
1601;SDS011;794;48.592;9.634;2022-08-30T00:08:16;10.03;;;9.03;;
1601;SDS011;794;48.592;9.634;2022-08-30T00:10:45;9.63;;;8.47;;
1601;SDS011;794;48.592;9.634;2022-08-30T00:13:15;8.93;;;8.13;;
1601;SDS011;794;48.592;9.634;2022-08-30T00:15:43;8.80;;;7.90;;
1601;SDS011;794;48.592;9.634;2022-08-30T00:18:10;8.60;;;7.90;;
1601;SDS011;794;48.592;9.634;2022-08-30T00:20:37;10.33;;;9.30;;
1601;SDS011;794;48.592;9.634;2022-08-30T00:23:04;10.37;;;9.27;;
1601;SDS011;794;48.592;9.634;2022-08-30T00:25:31;11.03;;;9.80;;
1601;SDS011;794;48.592;9.634;2022-08-30T00:27:59;10.03;;;9.10;;
1601;SDS011;794;48.592;9.634;2022-08-30T00:30:26;8.80;;;8.00;;
1601;SDS011;794;48.592;9.634;2022-08-30T00:32:53;10.80;;;9.70;;
1601;SDS011;794;48.592;9.634;2022-08-30T00:35:20;11.17;;;10.07;;
1601;SDS011;794;48.592;9.634;2022-08-30T00:37:48;10.67;;;9.67;;
1601;SDS011;794;48.592;9.634;2022-08-30T00:40:15;10.20;;;9.20;;
1601;SDS011;794;48.592;9.634;2022-08-30T00:42:44;9.50;;;8.33;;
1601;SDS011;794;48.592;9.634;2022-08-30T00:45:15;11.63;;;8.57;;
1601;SDS011;794;48.592;9.634;2022-08-30T00:47:43;9.90;;;9.00;;
1601;SDS011;794;48.592;9.634;2022-08-30T00:50:11;11.43;;;9.97;;
1601;SDS011;794;48.592;9.634;2022-08-30T00:52:41;12.67;;;9.90;;
1601;SDS011;794;48.592;9.634;2022-08-30T00:55:12;11.90;;;9.37;;
1601;SDS011;794;48.592;9.634;2022-08-30T00:57:41;9.07;;;8.27;;
1601;SDS011;794;48.592;9.634;2022-08-30T01:00:11;9.63;;;8.60;;
1601;SDS011;794;48.592;9.634;2022-08-30T01:02:40;9.30;;;8.30;;
1601;SDS011;794;48.592;9.634;2022-08-30T01:05:08;9.50;;;8.50;;
1601;SDS011;794;48.592;9.634;2022-08-30T01:07:37;11.10;;;10.00;;
1601;SDS011;794;48.592;9.634;2022-08-30T01:10:05;10.27;;;9.30;;
1601;SDS011;794;48.592;9.634;2022-08-30T01:12:35;11.40;;;8.63;;
1601;SDS011;794;48.592;9.634;2022-08-30T01:15:04;10.10;;;9.10;;
1601;SDS011;794;48.592;9.634;2022-08-30T01:17:32;9.57;;;8.70;;
1601;SDS011;794;48.592;9.634;2022-08-30T01:20:04;10.47;;;9.37;;
1601;SDS011;794;48.592;9.634;2022-08-30T01:22:33;8.80;;;7.90;;
1601;SDS011;794;48.592;9.634;2022-08-30T01:25:07;10.40;;;9.30;;
1601;SDS011;794;48.592;9.634;2022-08-30T01:27:35;10.67;;;8.13;;
1601;SDS011;794;48.592;9.634;2022-08-30T01:30:06;10.03;;;9.03;;
1601;SDS011;794;48.592;9.634;2022-08-30T01:32:37;9.13;;;8.33;;
1601;SDS011;794;48.592;9.634;2022-08-30T01:35:05;10.73;;;9.63;;
1601;SDS011;794;48.592;9.634;2022-08-30T01:37:32;10.00;;;9.10;;
1601;SDS011;794;48.592;9.634;2022-08-30T01:40:00;9.87;;;8.50;;
1601;SDS011;794;48.592;9.634;2022-08-30T01:42:29;8.70;;;7.87;;
1601;SDS011;794;48.592;9.634;2022-08-30T01:44:55;10.27;;;9.27;;
1601;SDS011;794;48.592;9.634;2022-08-30T01:47:22;12.10;;;9.47;;
1601;SDS011;794;48.592;9.634;2022-08-30T01:49:49;10.47;;;9.47;;
1601;SDS011;794;48.592;9.634;2022-08-30T01:52:16;9.60;;;8.37;;
1601;SDS011;794;48.592;9.634;2022-08-30T01:54:44;12.40;;;9.07;;
1601;SDS011;794;48.592;9.634;2022-08-30T01:57:12;10.27;;;8.77;;
1601;SDS011;794;48.592;9.634;2022-08-30T01:59:43;10.20;;;9.20;;
1601;SDS011;794;48.592;9.634;2022-08-30T02:02:12;11.60;;;9.63;;
1601;SDS011;794;48.592;9.634;2022-08-30T02:04:39;15.03;;;10.40;;
1601;SDS011;794;48.592;9.634;2022-08-30T02:07:06;11.20;;;10.17;;
1601;SDS011;794;48.592;9.634;2022-08-30T02:09:33;11.70;;;10.60;;
1601;SDS011;794;48.592;9.634;2022-08-30T02:12:01;10.47;;;9.30;;
1601;SDS011;794;48.592;9.634;2022-08-30T02:14:30;10.07;;;9.07;;
1601;SDS011;794;48.592;9.634;2022-08-30T02:16:58;10.20;;;9.20;;
1601;SDS011;794;48.592;9.634;2022-08-30T02:19:26;12.10;;;10.23;;
1601;SDS011;794;48.592;9.634;2022-08-30T02:21:53;11.87;;;9.90;;
1601;SDS011;794;48.592;9.634;2022-08-30T02:24:20;9.97;;;8.93;;
1601;SDS011;794;48.592;9.634;2022-08-30T02:26:47;10.77;;;9.53;;
1601;SDS011;794;48.592;9.634;2022-08-30T02:29:16;11.97;;;10.87;;
1601;SDS011;794;48.592;9.634;2022-08-30T02:31:43;11.60;;;10.13;;
1601;SDS011;794;48.592;9.634;2022-08-30T02:34:11;10.63;;;9.53;;
1601;SDS011;794;48.592;9.634;2022-08-30T02:36:39;10.83;;;9.60;;
1601;SDS011;794;48.592;9.634;2022-08-30T02:39:06;11.80;;;10.50;;
1601;SDS011;794;48.592;9.634;2022-08-30T02:41:33;10.83;;;9.60;;
1601;SDS011;794;48.592;9.634;2022-08-30T02:44:02;12.37;;;10.87;;
1601;SDS011;794;48.592;9.634;2022-08-30T02:46:29;9.47;;;8.53;;
1601;SDS011;794;48.592;9.634;2022-08-30T02:48:56;10.93;;;9.83;;
1601;SDS011;794;48.592;9.634;2022-08-30T02:51:24;10.60;;;9.60;;
1601;SDS011;794;48.592;9.634;2022-08-30T02:53:51;12.70;;;10.57;;
1601;SDS011;794;48.592;9.634;2022-08-30T02:56:18;11.77;;;10.57;;
1601;SDS011;794;48.592;9.634;2022-08-30T02:58:45;10.43;;;9.43;;
1601;SDS011;794;48.592;9.634;2022-08-30T03:01:13;11.03;;;9.93;;
1601;SDS011;794;48.592;9.634;2022-08-30T03:03:42;12.17;;;10.83;;
1601;SDS011;794;48.592;9.634;2022-08-30T03:06:11;11.10;;;10.00;;
1601;SDS011;794;48.592;9.634;2022-08-30T03:08:39;12.67;;;10.63;;
1601;SDS011;794;48.592;9.634;2022-08-30T03:11:06;14.93;;;9.47;;
1601;SDS011;794;48.592;9.634;2022-08-30T03:13:33;10.83;;;9.73;;
1601;SDS011;794;48.592;9.634;2022-08-30T03:16:00;13.83;;;10.33;;
1601;SDS011;794;48.592;9.634;2022-08-30T03:18:27;10.53;;;9.43;;
1601;SDS011;794;48.592;9.634;2022-08-30T03:20:54;10.67;;;9.67;;
1601;SDS011;794;48.592;9.634;2022-08-30T03:23:21;11.90;;;10.80;;
1601;SDS011;794;48.592;9.634;2022-08-30T03:25:50;12.00;;;10.10;;
1601;SDS011;794;48.592;9.634;2022-08-30T03:28:17;9.10;;;8.20;;
1601;SDS011;794;48.592;9.634;2022-08-30T03:30:44;11.47;;;10.47;;
1601;SDS011;794;48.592;9.634;2022-08-30T03:33:12;12.27;;;9.53;;
1601;SDS011;794;48.592;9.634;2022-08-30T03:35:39;11.50;;;10.40;;
1601;SDS011;794;48.592;9.634;2022-08-30T03:38:05;12.47;;;10.03;;
1601;SDS011;794;48.592;9.634;2022-08-30T03:40:32;12.87;;;10.03;;
1601;SDS011;794;48.592;9.634;2022-08-30T03:43:01;9.90;;;8.90;;
1601;SDS011;794;48.592;9.634;2022-08-30T03:45:28;10.47;;;9.57;;
1601;SDS011;794;48.592;9.634;2022-08-30T03:47:55;11.47;;;10.37;;
1601;SDS011;794;48.592;9.634;2022-08-30T03:50:23;14.40;;;11.83;;
1601;SDS011;794;48.592;9.634;2022-08-30T03:52:50;10.77;;;9.67;;
1601;SDS011;794;48.592;9.634;2022-08-30T03:55:17;11.73;;;10.60;;
1601;SDS011;794;48.592;9.634;2022-08-30T03:57:44;10.93;;;9.73;;
1601;SDS011;794;48.592;9.634;2022-08-30T04:00:13;11.37;;;10.10;;
1601;SDS011;794;48.592;9.634;2022-08-30T04:02:42;10.73;;;9.60;;
1601;SDS011;794;48.592;9.634;2022-08-30T04:05:09;11.37;;;9.60;;
1601;SDS011;794;48.592;9.634;2022-08-30T04:07:37;10.63;;;9.27;;
1601;SDS011;794;48.592;9.634;2022-08-30T04:10:04;11.13;;;9.93;;
1601;SDS011;794;48.592;9.634;2022-08-30T04:12:33;10.43;;;9.37;;
1601;SDS011;794;48.592;9.634;2022-08-30T04:15:00;13.23;;;10.37;;
1601;SDS011;794;48.592;9.634;2022-08-30T04:17:29;11.87;;;10.67;;
1601;SDS011;794;48.592;9.634;2022-08-30T04:19:56;11.33;;;10.23;;
1601;SDS011;794;48.592;9.634;2022-08-30T04:22:23;12.20;;;10.90;;
1601;SDS011;794;48.592;9.634;2022-08-30T04:24:50;11.63;;;10.53;;
1601;SDS011;794;48.592;9.634;2022-08-30T04:27:16;12.30;;;10.67;;
1601;SDS011;794;48.592;9.634;2022-08-30T04:29:44;12.57;;;11.23;;
1601;SDS011;794;48.592;9.634;2022-08-30T04:32:12;11.57;;;10.47;;
1601;SDS011;794;48.592;9.634;2022-08-30T04:34:40;15.40;;;11.03;;
1601;SDS011;794;48.592;9.634;2022-08-30T04:37:07;12.20;;;10.70;;
1601;SDS011;794;48.592;9.634;2022-08-30T04:39:34;10.13;;;9.23;;
1601;SDS011;794;48.592;9.634;2022-08-30T04:42:01;12.17;;;10.57;;
1601;SDS011;794;48.592;9.634;2022-08-30T04:44:28;12.00;;;10.90;;
1601;SDS011;794;48.592;9.634;2022-08-30T04:46:56;12.30;;;10.50;;
1601;SDS011;794;48.592;9.634;2022-08-30T04:49:24;10.33;;;9.33;;
1601;SDS011;794;48.592;9.634;2022-08-30T04:51:52;12.00;;;10.23;;
1601;SDS011;794;48.592;9.634;2022-08-30T04:54:19;16.07;;;10.87;;
1601;SDS011;794;48.592;9.634;2022-08-30T04:56:46;11.33;;;10.23;;
1601;SDS011;794;48.592;9.634;2022-08-30T04:59:13;10.50;;;9.47;;
1601;SDS011;794;48.592;9.634;2022-08-30T05:01:40;11.23;;;10.10;;
1601;SDS011;794;48.592;9.634;2022-08-30T05:04:07;12.20;;;11.00;;
1601;SDS011;794;48.592;9.634;2022-08-30T05:06:34;10.40;;;8.87;;
1601;SDS011;794;48.592;9.634;2022-08-30T05:09:02;11.33;;;10.20;;
1601;SDS011;794;48.592;9.634;2022-08-30T05:11:29;13.20;;;10.13;;
1601;SDS011;794;48.592;9.634;2022-08-30T05:13:56;12.80;;;11.50;;
1601;SDS011;794;48.592;9.634;2022-08-30T05:16:23;11.50;;;9.67;;
1601;SDS011;794;48.592;9.634;2022-08-30T05:18:51;10.83;;;9.73;;
1601;SDS011;794;48.592;9.634;2022-08-30T05:21:18;10.40;;;9.27;;
1601;SDS011;794;48.592;9.634;2022-08-30T05:23:47;10.00;;;8.90;;
1601;SDS011;794;48.592;9.634;2022-08-30T05:26:16;10.70;;;8.77;;
1601;SDS011;794;48.592;9.634;2022-08-30T05:28:45;17.10;;;10.97;;
1601;SDS011;794;48.592;9.634;2022-08-30T05:31:13;11.63;;;9.97;;
1601;SDS011;794;48.592;9.634;2022-08-30T05:33:41;10.07;;;9.17;;
1601;SDS011;794;48.592;9.634;2022-08-30T05:36:09;9.90;;;9.00;;
1601;SDS011;794;48.592;9.634;2022-08-30T05:38:37;10.70;;;8.87;;
1601;SDS011;794;48.592;9.634;2022-08-30T05:41:04;12.57;;;11.13;;
1601;SDS011;794;48.592;9.634;2022-08-30T05:43:33;11.87;;;10.67;;
1601;SDS011;794;48.592;9.634;2022-08-30T05:46:02;11.77;;;10.40;;
1601;SDS011;794;48.592;9.634;2022-08-30T05:48:30;11.23;;;10.00;;
1601;SDS011;794;48.592;9.634;2022-08-30T05:51:02;12.70;;;10.17;;
1601;SDS011;794;48.592;9.634;2022-08-30T05:53:30;12.37;;;11.07;;
1601;SDS011;794;48.592;9.634;2022-08-30T05:55:59;10.50;;;9.40;;
1601;SDS011;794;48.592;9.634;2022-08-30T05:58:26;10.50;;;9.40;;
1601;SDS011;794;48.592;9.634;2022-08-30T06:00:55;11.17;;;9.93;;
1601;SDS011;794;48.592;9.634;2022-08-30T06:03:21;14.30;;;10.67;;
1601;SDS011;794;48.592;9.634;2022-08-30T06:05:49;13.40;;;10.20;;
1601;SDS011;794;48.592;9.634;2022-08-30T06:08:16;12.20;;;8.73;;
1601;SDS011;794;48.592;9.634;2022-08-30T06:10:43;15.07;;;10.70;;
1601;SDS011;794;48.592;9.634;2022-08-30T06:13:09;11.00;;;9.50;;
1601;SDS011;794;48.592;9.634;2022-08-30T06:15:38;11.73;;;9.30;;
1601;SDS011;794;48.592;9.634;2022-08-30T06:18:06;10.60;;;9.50;;
1601;SDS011;794;48.592;9.634;2022-08-30T06:20:33;10.57;;;9.57;;
1601;SDS011;794;48.592;9.634;2022-08-30T06:23:05;10.30;;;9.40;;
1601;SDS011;794;48.592;9.634;2022-08-30T06:25:33;10.07;;;9.07;;
1601;SDS011;794;48.592;9.634;2022-08-30T06:28:01;11.73;;;9.60;;
1601;SDS011;794;48.592;9.634;2022-08-30T06:30:28;10.47;;;8.37;;
1601;SDS011;794;48.592;9.634;2022-08-30T06:32:55;10.87;;;9.73;;
1601;SDS011;794;48.592;9.634;2022-08-30T06:35:23;10.53;;;9.40;;
1601;SDS011;794;48.592;9.634;2022-08-30T06:37:50;9.03;;;8.23;;
1601;SDS011;794;48.592;9.634;2022-08-30T06:40:17;10.57;;;9.50;;
1601;SDS011;794;48.592;9.634;2022-08-30T06:42:45;10.93;;;9.30;;
1601;SDS011;794;48.592;9.634;2022-08-30T06:45:13;8.57;;;7.67;;
1601;SDS011;794;48.592;9.634;2022-08-30T06:47:40;12.60;;;10.27;;
1601;SDS011;794;48.592;9.634;2022-08-30T06:50:08;9.10;;;8.03;;
1601;SDS011;794;48.592;9.634;2022-08-30T06:52:37;12.13;;;8.40;;
1601;SDS011;794;48.592;9.634;2022-08-30T06:55:05;9.77;;;8.80;;
1601;SDS011;794;48.592;9.634;2022-08-30T06:57:32;9.33;;;8.20;;
1601;SDS011;794;48.592;9.634;2022-08-30T06:59:59;12.53;;;8.83;;
1601;SDS011;794;48.592;9.634;2022-08-30T07:02:27;14.87;;;9.57;;
1601;SDS011;794;48.592;9.634;2022-08-30T07:04:53;10.10;;;9.20;;
1601;SDS011;794;48.592;9.634;2022-08-30T07:07:20;13.43;;;9.10;;
1601;SDS011;794;48.592;9.634;2022-08-30T07:09:49;9.93;;;9.00;;
1601;SDS011;794;48.592;9.634;2022-08-30T07:12:16;12.60;;;7.13;;
1601;SDS011;794;48.592;9.634;2022-08-30T07:14:43;5.87;;;5.23;;
1601;SDS011;794;48.592;9.634;2022-08-30T07:17:10;8.67;;;7.40;;
1601;SDS011;794;48.592;9.634;2022-08-30T07:19:54;6.83;;;6.23;;
1601;SDS011;794;48.592;9.634;2022-08-30T07:22:21;7.27;;;6.60;;
1601;SDS011;794;48.592;9.634;2022-08-30T07:24:47;6.63;;;5.93;;
1601;SDS011;794;48.592;9.634;2022-08-30T07:27:16;7.77;;;6.97;;
1601;SDS011;794;48.592;9.634;2022-08-30T07:29:42;7.50;;;6.80;;
1601;SDS011;794;48.592;9.634;2022-08-30T07:32:09;6.43;;;5.83;;
1601;SDS011;794;48.592;9.634;2022-08-30T07:34:36;11.13;;;5.90;;
1601;SDS011;794;48.592;9.634;2022-08-30T07:37:03;7.00;;;6.40;;
1601;SDS011;794;48.592;9.634;2022-08-30T07:39:30;5.80;;;5.30;;
1601;SDS011;794;48.592;9.634;2022-08-30T07:41:58;6.50;;;5.70;;
1601;SDS011;794;48.592;9.634;2022-08-30T07:44:26;6.27;;;5.77;;
1601;SDS011;794;48.592;9.634;2022-08-30T07:46:53;5.77;;;5.33;;
1601;SDS011;794;48.592;9.634;2022-08-30T07:49:20;7.50;;;5.43;;
1601;SDS011;794;48.592;9.634;2022-08-30T07:51:47;6.30;;;5.70;;
1601;SDS011;794;48.592;9.634;2022-08-30T07:54:15;7.53;;;6.63;;
1601;SDS011;794;48.592;9.634;2022-08-30T07:56:42;7.53;;;5.90;;
1601;SDS011;794;48.592;9.634;2022-08-30T07:59:10;6.90;;;6.17;;
1601;SDS011;794;48.592;9.634;2022-08-30T08:01:37;6.30;;;5.80;;
1601;SDS011;794;48.592;9.634;2022-08-30T08:04:04;6.77;;;6.07;;
1601;SDS011;794;48.592;9.634;2022-08-30T08:06:31;7.23;;;6.63;;
1601;SDS011;794;48.592;9.634;2022-08-30T08:08:58;7.43;;;6.77;;
1601;SDS011;794;48.592;9.634;2022-08-30T08:11:26;6.13;;;5.60;;
1601;SDS011;794;48.592;9.634;2022-08-30T08:13:53;9.67;;;6.17;;
1601;SDS011;794;48.592;9.634;2022-08-30T08:16:22;9.80;;;6.43;;
1601;SDS011;794;48.592;9.634;2022-08-30T08:18:54;6.60;;;5.87;;
1601;SDS011;794;48.592;9.634;2022-08-30T08:21:22;6.87;;;6.37;;
1601;SDS011;794;48.592;9.634;2022-08-30T08:23:50;5.60;;;5.20;;
1601;SDS011;794;48.592;9.634;2022-08-30T08:26:17;7.27;;;6.57;;
1601;SDS011;794;48.592;9.634;2022-08-30T08:28:45;5.93;;;5.43;;
1601;SDS011;794;48.592;9.634;2022-08-30T08:31:13;7.73;;;6.20;;
1601;SDS011;794;48.592;9.634;2022-08-30T08:33:42;6.83;;;6.23;;
1601;SDS011;794;48.592;9.634;2022-08-30T08:36:09;5.93;;;5.43;;
1601;SDS011;794;48.592;9.634;2022-08-30T08:38:36;6.33;;;5.87;;
1601;SDS011;794;48.592;9.634;2022-08-30T08:41:04;10.70;;;5.80;;
1601;SDS011;794;48.592;9.634;2022-08-30T08:43:35;7.10;;;6.40;;
1601;SDS011;794;48.592;9.634;2022-08-30T08:46:03;5.77;;;5.27;;
1601;SDS011;794;48.592;9.634;2022-08-30T08:48:38;6.07;;;5.47;;
1601;SDS011;794;48.592;9.634;2022-08-30T08:51:09;8.80;;;5.80;;
1601;SDS011;794;48.592;9.634;2022-08-30T08:53:58;5.90;;;5.40;;
1601;SDS011;794;48.592;9.634;2022-08-30T08:56:29;5.37;;;4.97;;
1601;SDS011;794;48.592;9.634;2022-08-30T08:58:57;5.93;;;5.40;;
1601;SDS011;794;48.592;9.634;2022-08-30T09:01:25;6.67;;;5.97;;
1601;SDS011;794;48.592;9.634;2022-08-30T09:03:54;6.30;;;5.20;;
1601;SDS011;794;48.592;9.634;2022-08-30T09:06:31;5.33;;;4.73;;
1601;SDS011;794;48.592;9.634;2022-08-30T09:09:06;8.20;;;5.30;;
1601;SDS011;794;48.592;9.634;2022-08-30T09:11:34;5.43;;;4.93;;
1601;SDS011;794;48.592;9.634;2022-08-30T09:14:02;8.50;;;5.20;;
1601;SDS011;794;48.592;9.634;2022-08-30T09:16:53;6.50;;;4.80;;
1601;SDS011;794;48.592;9.634;2022-08-30T09:19:28;6.50;;;5.90;;
1601;SDS011;794;48.592;9.634;2022-08-30T09:21:58;5.23;;;4.70;;
1601;SDS011;794;48.592;9.634;2022-08-30T09:24:35;4.47;;;4.07;;
1601;SDS011;794;48.592;9.634;2022-08-30T09:27:12;4.70;;;4.30;;
1601;SDS011;794;48.592;9.634;2022-08-30T09:29:48;6.53;;;4.67;;
1601;SDS011;794;48.592;9.634;2022-08-30T09:32:24;4.63;;;4.30;;
1601;SDS011;794;48.592;9.634;2022-08-30T09:34:52;5.67;;;5.10;;
1601;SDS011;794;48.592;9.634;2022-08-30T09:37:37;5.53;;;5.00;;
1601;SDS011;794;48.592;9.634;2022-08-30T09:46:54;6.13;;;5.53;;
1601;SDS011;794;48.592;9.634;2022-08-30T09:49:30;6.43;;;5.00;;
1601;SDS011;794;48.592;9.634;2022-08-30T09:52:07;7.23;;;4.87;;
1601;SDS011;794;48.592;9.634;2022-08-30T09:54:46;5.57;;;4.60;;
1601;SDS011;794;48.592;9.634;2022-08-30T09:57:27;6.03;;;5.53;;
1601;SDS011;794;48.592;9.634;2022-08-30T10:00:12;5.93;;;5.43;;
1601;SDS011;794;48.592;9.634;2022-08-30T10:02:47;5.03;;;4.60;;
1601;SDS011;794;48.592;9.634;2022-08-30T10:05:24;6.37;;;5.67;;
1601;SDS011;794;48.592;9.634;2022-08-30T10:08:00;5.37;;;4.93;;
1601;SDS011;794;48.592;9.634;2022-08-30T10:10:36;5.93;;;5.43;;
1601;SDS011;794;48.592;9.634;2022-08-30T10:13:27;6.33;;;5.60;;
1601;SDS011;794;48.592;9.634;2022-08-30T10:16:03;6.00;;;5.50;;
1601;SDS011;794;48.592;9.634;2022-08-30T10:18:39;6.77;;;5.30;;
1601;SDS011;794;48.592;9.634;2022-08-30T10:21:14;5.37;;;4.97;;
1601;SDS011;794;48.592;9.634;2022-08-30T10:23:44;5.43;;;4.80;;
1601;SDS011;794;48.592;9.634;2022-08-30T10:26:22;5.13;;;4.67;;
1601;SDS011;794;48.592;9.634;2022-08-30T10:28:54;4.33;;;3.93;;
1601;SDS011;794;48.592;9.634;2022-08-30T10:31:26;5.47;;;4.90;;
1601;SDS011;794;48.592;9.634;2022-08-30T10:33:57;6.07;;;4.97;;
1601;SDS011;794;48.592;9.634;2022-08-30T10:36:32;5.43;;;4.93;;
1601;SDS011;794;48.592;9.634;2022-08-30T10:39:05;5.50;;;4.77;;
1601;SDS011;794;48.592;9.634;2022-08-30T10:41:36;4.80;;;4.50;;
1601;SDS011;794;48.592;9.634;2022-08-30T10:44:10;5.33;;;4.80;;
1601;SDS011;794;48.592;9.634;2022-08-30T10:46:49;5.40;;;4.73;;
1601;SDS011;794;48.592;9.634;2022-08-30T10:49:26;5.77;;;5.27;;
1601;SDS011;794;48.592;9.634;2022-08-30T10:51:56;8.63;;;5.40;;
1601;SDS011;794;48.592;9.634;2022-08-30T10:54:39;6.20;;;5.50;;
1601;SDS011;794;48.592;9.634;2022-08-30T10:57:13;5.27;;;4.80;;
1601;SDS011;794;48.592;9.634;2022-08-30T10:59:42;5.87;;;5.37;;
1601;SDS011;794;48.592;9.634;2022-08-30T11:05:28;4.90;;;4.37;;
1601;SDS011;794;48.592;9.634;2022-08-30T11:08:09;5.00;;;4.60;;
1601;SDS011;794;48.592;9.634;2022-08-30T11:10:51;4.83;;;4.47;;
1601;SDS011;794;48.592;9.634;2022-08-30T11:13:29;5.20;;;4.70;;
1601;SDS011;794;48.592;9.634;2022-08-30T11:16:00;8.17;;;4.90;;
1601;SDS011;794;48.592;9.634;2022-08-30T11:18:30;5.07;;;4.67;;
1601;SDS011;794;48.592;9.634;2022-08-30T11:23:56;5.80;;;5.30;;
1601;SDS011;794;48.592;9.634;2022-08-30T11:29:31;5.30;;;4.80;;
1601;SDS011;794;48.592;9.634;2022-08-30T11:35:12;5.57;;;4.97;;
1601;SDS011;794;48.592;9.634;2022-08-30T11:38:10;4.83;;;4.43;;
1601;SDS011;794;48.592;9.634;2022-08-30T11:40:42;5.73;;;4.60;;
1601;SDS011;794;48.592;9.634;2022-08-30T11:46:16;5.40;;;4.90;;
1601;SDS011;794;48.592;9.634;2022-08-30T11:48:49;5.40;;;5.00;;
1601;SDS011;794;48.592;9.634;2022-08-30T11:51:30;6.50;;;5.90;;
1601;SDS011;794;48.592;9.634;2022-08-30T11:54:20;5.17;;;4.77;;
1601;SDS011;794;48.592;9.634;2022-08-30T11:56:59;5.97;;;5.37;;
1601;SDS011;794;48.592;9.634;2022-08-30T11:59:37;6.30;;;5.17;;
1601;SDS011;794;48.592;9.634;2022-08-30T12:14:32;5.77;;;5.27;;
1601;SDS011;794;48.592;9.634;2022-08-30T12:17:02;5.77;;;5.20;;
1601;SDS011;794;48.592;9.634;2022-08-30T12:19:59;4.83;;;4.43;;
1601;SDS011;794;48.592;9.634;2022-08-30T12:22:25;5.20;;;4.80;;
1601;SDS011;794;48.592;9.634;2022-08-30T12:24:54;5.67;;;5.17;;
1601;SDS011;794;48.592;9.634;2022-08-30T12:27:23;7.40;;;4.80;;
1601;SDS011;794;48.592;9.634;2022-08-30T12:29:52;5.80;;;5.30;;
1601;SDS011;794;48.592;9.634;2022-08-30T12:32:20;6.10;;;5.60;;
1601;SDS011;794;48.592;9.634;2022-08-30T12:34:49;6.00;;;5.43;;
1601;SDS011;794;48.592;9.634;2022-08-30T12:37:20;5.73;;;5.10;;
1601;SDS011;794;48.592;9.634;2022-08-30T12:39:58;5.50;;;4.83;;
1601;SDS011;794;48.592;9.634;2022-08-30T12:42:28;8.20;;;5.37;;
1601;SDS011;794;48.592;9.634;2022-08-30T12:44:58;6.93;;;5.37;;
1601;SDS011;794;48.592;9.634;2022-08-30T12:47:27;5.87;;;5.37;;
1601;SDS011;794;48.592;9.634;2022-08-30T12:49:57;6.20;;;5.17;;
1601;SDS011;794;48.592;9.634;2022-08-30T12:52:28;5.87;;;5.33;;
1601;SDS011;794;48.592;9.634;2022-08-30T12:55:04;5.60;;;5.10;;
1601;SDS011;794;48.592;9.634;2022-08-30T12:57:37;8.10;;;5.20;;
1601;SDS011;794;48.592;9.634;2022-08-30T13:00:07;9.20;;;5.33;;
1601;SDS011;794;48.592;9.634;2022-08-30T13:02:46;5.87;;;5.37;;
1601;SDS011;794;48.592;9.634;2022-08-30T13:05:41;6.20;;;4.90;;
1601;SDS011;794;48.592;9.634;2022-08-30T13:08:13;6.40;;;5.90;;
1601;SDS011;794;48.592;9.634;2022-08-30T13:10:55;5.57;;;5.03;;
1601;SDS011;794;48.592;9.634;2022-08-30T13:13:25;7.00;;;5.17;;
1601;SDS011;794;48.592;9.634;2022-08-30T13:16:05;6.07;;;5.57;;
1601;SDS011;794;48.592;9.634;2022-08-30T13:18:46;5.30;;;4.80;;
1601;SDS011;794;48.592;9.634;2022-08-30T13:21:21;5.67;;;5.10;;
1601;SDS011;794;48.592;9.634;2022-08-30T13:23:54;6.23;;;4.90;;
1601;SDS011;794;48.592;9.634;2022-08-30T13:26:22;6.83;;;5.33;;
1601;SDS011;794;48.592;9.634;2022-08-30T13:28:50;6.43;;;5.93;;
1601;SDS011;794;48.592;9.634;2022-08-30T13:31:19;6.90;;;4.97;;
1601;SDS011;794;48.592;9.634;2022-08-30T13:33:46;6.43;;;5.33;;
1601;SDS011;794;48.592;9.634;2022-08-30T13:36:16;6.37;;;5.33;;
1601;SDS011;794;48.592;9.634;2022-08-30T13:38:44;5.90;;;4.87;;
1601;SDS011;794;48.592;9.634;2022-08-30T13:41:12;5.47;;;5.07;;
1601;SDS011;794;48.592;9.634;2022-08-30T13:43:39;5.30;;;4.90;;
1601;SDS011;794;48.592;9.634;2022-08-30T13:46:06;4.70;;;4.30;;
1601;SDS011;794;48.592;9.634;2022-08-30T13:48:34;7.10;;;5.47;;
1601;SDS011;794;48.592;9.634;2022-08-30T13:51:01;7.60;;;5.50;;
1601;SDS011;794;48.592;9.634;2022-08-30T13:53:29;5.73;;;4.70;;
1601;SDS011;794;48.592;9.634;2022-08-30T13:55:55;5.87;;;4.77;;
1601;SDS011;794;48.592;9.634;2022-08-30T13:58:24;5.53;;;5.00;;
1601;SDS011;794;48.592;9.634;2022-08-30T14:00:50;5.47;;;5.07;;
1601;SDS011;794;48.592;9.634;2022-08-30T14:03:17;10.00;;;5.60;;
1601;SDS011;794;48.592;9.634;2022-08-30T14:05:44;6.07;;;5.50;;
1601;SDS011;794;48.592;9.634;2022-08-30T14:08:13;4.97;;;4.57;;
1601;SDS011;794;48.592;9.634;2022-08-30T14:10:41;6.07;;;5.00;;
1601;SDS011;794;48.592;9.634;2022-08-30T14:13:08;5.87;;;5.37;;
1601;SDS011;794;48.592;9.634;2022-08-30T14:15:37;5.23;;;4.73;;
1601;SDS011;794;48.592;9.634;2022-08-30T14:18:05;8.03;;;5.70;;
1601;SDS011;794;48.592;9.634;2022-08-30T14:20:33;5.60;;;5.10;;
1601;SDS011;794;48.592;9.634;2022-08-30T14:23:00;5.60;;;5.07;;
1601;SDS011;794;48.592;9.634;2022-08-30T14:25:27;9.30;;;5.23;;
1601;SDS011;794;48.592;9.634;2022-08-30T14:27:54;6.50;;;4.73;;
1601;SDS011;794;48.592;9.634;2022-08-30T14:30:21;5.37;;;4.97;;
1601;SDS011;794;48.592;9.634;2022-08-30T14:32:49;5.30;;;4.80;;
1601;SDS011;794;48.592;9.634;2022-08-30T14:35:16;5.97;;;5.23;;
1601;SDS011;794;48.592;9.634;2022-08-30T14:37:44;5.30;;;4.90;;
1601;SDS011;794;48.592;9.634;2022-08-30T14:40:12;5.60;;;5.00;;
1601;SDS011;794;48.592;9.634;2022-08-30T14:42:39;5.87;;;5.37;;
1601;SDS011;794;48.592;9.634;2022-08-30T14:45:06;5.93;;;5.33;;
1601;SDS011;794;48.592;9.634;2022-08-30T14:47:35;6.53;;;5.30;;
1601;SDS011;794;48.592;9.634;2022-08-30T14:50:03;4.60;;;4.20;;
1601;SDS011;794;48.592;9.634;2022-08-30T14:52:31;7.17;;;5.60;;
1601;SDS011;794;48.592;9.634;2022-08-30T14:54:58;5.27;;;4.77;;
1601;SDS011;794;48.592;9.634;2022-08-30T14:57:26;5.43;;;5.03;;
1601;SDS011;794;48.592;9.634;2022-08-30T14:59:53;5.93;;;5.33;;
1601;SDS011;794;48.592;9.634;2022-08-30T15:10:02;5.00;;;4.50;;
1601;SDS011;794;48.592;9.634;2022-08-30T15:12:30;6.10;;;4.90;;
1601;SDS011;794;48.592;9.634;2022-08-30T15:14:57;7.57;;;4.53;;
1601;SDS011;794;48.592;9.634;2022-08-30T15:17:24;5.43;;;5.00;;
1601;SDS011;794;48.592;9.634;2022-08-30T15:19:50;4.80;;;4.37;;
1601;SDS011;794;48.592;9.634;2022-08-30T15:22:18;5.67;;;5.17;;
1601;SDS011;794;48.592;9.634;2022-08-30T15:24:44;6.80;;;4.83;;
1601;SDS011;794;48.592;9.634;2022-08-30T15:27:13;5.53;;;5.03;;
1601;SDS011;794;48.592;9.634;2022-08-30T15:29:39;6.30;;;5.40;;
1601;SDS011;794;48.592;9.634;2022-08-30T15:32:06;4.50;;;4.10;;
1601;SDS011;794;48.592;9.634;2022-08-30T15:34:33;5.17;;;4.67;;
1601;SDS011;794;48.592;9.634;2022-08-30T15:37:00;5.97;;;5.10;;
1601;SDS011;794;48.592;9.634;2022-08-30T15:39:29;7.30;;;5.03;;
1601;SDS011;794;48.592;9.634;2022-08-30T15:41:56;5.10;;;4.70;;
1601;SDS011;794;48.592;9.634;2022-08-30T15:44:24;7.10;;;5.40;;
1601;SDS011;794;48.592;9.634;2022-08-30T15:46:51;5.47;;;4.97;;
1601;SDS011;794;48.592;9.634;2022-08-30T15:49:19;4.63;;;4.23;;
1601;SDS011;794;48.592;9.634;2022-08-30T15:51:48;7.80;;;5.27;;
1601;SDS011;794;48.592;9.634;2022-08-30T15:54:17;7.30;;;4.80;;
1601;SDS011;794;48.592;9.634;2022-08-30T15:56:45;6.30;;;5.10;;
1601;SDS011;794;48.592;9.634;2022-08-30T15:59:12;5.17;;;4.67;;
1601;SDS011;794;48.592;9.634;2022-08-30T16:01:42;6.17;;;5.60;;
1601;SDS011;794;48.592;9.634;2022-08-30T16:04:10;4.60;;;4.20;;
1601;SDS011;794;48.592;9.634;2022-08-30T16:06:37;6.30;;;5.40;;
1601;SDS011;794;48.592;9.634;2022-08-30T16:09:05;7.50;;;5.50;;
1601;SDS011;794;48.592;9.634;2022-08-30T16:11:32;5.37;;;4.87;;
1601;SDS011;794;48.592;9.634;2022-08-30T16:14:00;7.90;;;4.80;;
1601;SDS011;794;48.592;9.634;2022-08-30T16:16:27;8.40;;;4.90;;
1601;SDS011;794;48.592;9.634;2022-08-30T16:18:56;8.43;;;5.00;;